Time;durP1;ratioP1;P1;durP2;ratioP2;P2;SDS_P1;SDS_P2;PMS_P1;PMS_P2;Temp;Humidity;BMP_temperature;BMP_pressure;BME280_temperature;BME280_humidity;BME280_pressure;Samples;Min_cycle;Max_cycle;Signal;HPM_P1;HPM_P2
2021/12/12 00:00:28;;;;;;;;;;;;;;;11.87;100.00;97749.09;5003665;28;20319;-77
2021/12/12 00:03:02;;;;;;;;;;;;;;;11.87;100.00;97752.53;4994271;28;19921;-78
2021/12/12 00:05:35;;;;;;;;;;;;;;;11.86;100.00;97759.00;4993926;28;19917;-80
2021/12/12 00:08:01;;;;;;;;;;;;;;;11.84;100.00;97745.94;4994354;28;19928;-81
2021/12/12 00:10:27;;;;;;;;;;;;;;;11.84;100.00;97748.59;4990480;28;19913;-81
2021/12/12 00:12:56;;;;;;;;;;;;;;;11.82;100.00;97758.84;4974747;28;19914;-78
2021/12/12 00:15:21;;;;;;;;;;;;;;;11.81;100.00;97783.28;4986230;28;20008;-75
2021/12/12 00:17:47;;;;;;;;;;;;;;;11.78;100.00;97779.34;5011764;28;20004;-76
2021/12/12 00:20:14;;;;;;;;;;;;;;;11.74;94.71;97777.59;5009498;28;20412;-75
2021/12/12 00:22:40;;;;;;;;;;;;;;;11.70;92.91;97801.53;5011519;28;19917;-76
2021/12/12 00:25:07;;;;;;;;;;;;;;;11.68;92.95;97758.19;4985716;28;19922;-76
2021/12/12 00:27:32;;;;;;;;;;;;;;;11.66;93.08;97787.97;4974442;28;19922;-76
2021/12/12 00:30:02;;;;;;;;;;;;;;;11.63;92.89;97777.09;4991921;28;20395;-78
2021/12/12 00:32:28;;;;;;;;;;;;;;;11.61;94.07;97768.59;4974529;28;20305;-78
2021/12/12 00:34:57;;;;;;;;;;;;;;;11.60;94.22;97770.50;4974570;28;19920;-77
2021/12/12 00:37:22;;;;;;;;;;;;;;;11.59;94.81;97787.66;4975447;28;19925;-78
2021/12/12 00:39:51;;;;;;;;;;;;;;;11.60;95.00;97786.56;4974402;28;19920;-76
2021/12/12 00:42:20;;;;;;;;;;;;;;;11.60;95.29;97794.59;4990163;28;19921;-75
2021/12/12 00:44:48;;;;;;;;;;;;;;;11.61;95.56;97806.88;4991503;28;19981;-74
2021/12/12 00:47:13;;;;;;;;;;;;;;;11.61;96.53;97812.25;4981620;28;20325;-79
2021/12/12 00:49:40;;;;;;;;;;;;;;;11.60;95.81;97807.22;4997564;28;19945;-74
2021/12/12 00:52:06;;;;;;;;;;;;;;;11.60;96.17;97815.25;4974206;28;19920;-76
2021/12/12 00:54:32;;;;;;;;;;;;;;;11.60;96.29;97818.69;4974393;28;20313;-75
2021/12/12 00:57:02;;;;;;;;;;;;;;;11.60;96.36;97816.00;4994238;28;19914;-74
2021/12/12 00:59:28;;;;;;;;;;;;;;;11.60;96.06;97810.66;4977784;28;20507;-75
2021/12/12 01:01:54;;;;;;;;;;;;;;;11.62;96.39;97802.31;4977996;28;20012;-75
2021/12/12 01:04:48;;;;;;;;;;;;;;;11.62;96.08;97816.50;5003682;28;20059;-75
2021/12/12 01:07:16;;;;;;;;;;;;;;;11.65;95.84;97842.63;4984176;28;19917;-75
2021/12/12 01:09:51;;;;;;;;;;;;;;;11.64;96.25;97843.72;4997247;28;19913;-74
2021/12/12 01:12:18;;;;;;;;;;;;;;;11.65;96.93;97852.56;4995562;28;19917;-74
2021/12/12 01:14:46;;;;;;;;;;;;;;;11.64;96.53;97865.16;4993963;28;19918;-74
2021/12/12 01:17:14;;;;;;;;;;;;;;;11.64;97.18;97880.44;4977735;28;19914;-75
2021/12/12 01:19:41;;;;;;;;;;;;;;;11.62;97.05;97904.88;5006452;28;19920;-75
2021/12/12 01:22:09;;;;;;;;;;;;;;;11.64;97.04;97909.91;4996736;28;19917;-78
2021/12/12 01:24:37;;;;;;;;;;;;;;;11.61;97.17;97889.09;4996823;28;19967;-77
2021/12/12 01:27:04;;;;;;;;;;;;;;;11.54;96.95;97892.22;4996738;28;19913;-76
2021/12/12 01:29:29;;;;;;;;;;;;;;;11.53;97.23;97890.66;4996916;28;19913;-77
2021/12/12 01:31:55;;;;;;;;;;;;;;;11.50;97.55;97894.75;4989378;28;19982;-77
2021/12/12 01:34:25;;;;;;;;;;;;;;;11.52;97.73;97902.47;4979022;28;19925;-75
2021/12/12 01:39:29;;;;;;;;;;;;;;;11.46;98.73;97923.25;4994651;28;19918;-75
2021/12/12 01:42:06;;;;;;;;;;;;;;;11.43;98.21;97874.88;4984818;28;20388;-76
2021/12/12 01:44:37;;;;;;;;;;;;;;;11.41;98.10;97844.94;4977973;28;20427;-73
2021/12/12 01:47:08;;;;;;;;;;;;;;;11.41;97.73;97823.53;4993970;28;19989;-74
2021/12/12 01:49:36;;;;;;;;;;;;;;;11.39;97.39;97826.53;4981132;28;19928;-73
2021/12/12 01:52:04;;;;;;;;;;;;;;;11.35;96.79;97804.94;5012839;28;19917;-74
2021/12/12 01:54:42;;;;;;;;;;;;;;;11.33;96.34;97809.81;4976881;28;19972;-74
2021/12/12 01:57:07;;;;;;;;;;;;;;;11.30;97.38;97798.94;4976706;28;19921;-72
2021/12/12 01:59:34;;;;;;;;;;;;;;;11.26;96.88;97798.78;4981087;28;19913;-74
2021/12/12 02:02:03;;;;;;;;;;;;;;;11.21;97.51;97780.97;5012763;28;19917;-74
2021/12/12 02:04:31;;;;;;;;;;;;;;;11.19;97.04;97809.94;5010357;28;19940;-73
2021/12/12 02:06:57;;;;;;;;;;;;;;;11.19;97.41;97822.53;4995947;28;19925;-75
2021/12/12 02:09:23;;;;;;;;;;;;;;;11.16;97.37;97812.44;4995903;28;19913;-75
2021/12/12 02:11:51;;;;;;;;;;;;;;;11.13;97.29;97797.00;4979358;28;19972;-74
2021/12/12 02:14:18;;;;;;;;;;;;;;;11.13;95.71;97789.78;4993478;28;19977;-74
2021/12/12 02:16:45;;;;;;;;;;;;;;;11.12;95.24;97793.56;4993715;28;19925;-79
2021/12/12 02:19:13;;;;;;;;;;;;;;;11.10;95.10;97794.97;4976491;28;19922;-75
2021/12/12 02:21:56;;;;;;;;;;;;;;;11.09;94.55;97798.72;4976435;28;19914;-75
2021/12/12 02:35:07;;;;;;;;;;;;;;;11.05;94.09;97796.66;4977498;28;19914;-72
2021/12/12 02:38:03;;;;;;;;;;;;;;;11.02;92.11;97807.19;4998687;28;20304;-76
2021/12/12 02:40:33;;;;;;;;;;;;;;;11.01;91.40;97810.97;4993277;28;19918;-76
2021/12/12 02:42:59;;;;;;;;;;;;;;;11.02;91.73;97817.91;4975673;28;20336;-74
2021/12/12 02:45:28;;;;;;;;;;;;;;;11.00;91.27;97810.19;4975563;28;19929;-75
2021/12/12 02:47:58;;;;;;;;;;;;;;;10.99;90.85;97808.59;4993261;28;19941;-76
2021/12/12 02:50:29;;;;;;;;;;;;;;;11.00;90.57;97822.78;4993405;28;19914;-76
2021/12/12 02:52:57;;;;;;;;;;;;;;;11.00;90.11;97817.44;4975417;28;20407;-76
2021/12/12 02:55:25;;;;;;;;;;;;;;;11.01;90.32;97825.16;4975349;28;20373;-76
2021/12/12 02:57:51;;;;;;;;;;;;;;;11.01;90.64;97822.47;4993195;28;20280;-74
2021/12/12 03:00:18;;;;;;;;;;;;;;;11.00;89.89;97826.22;4992363;28;19924;-75
2021/12/12 03:02:46;;;;;;;;;;;;;;;11.00;89.18;97823.56;4975633;28;19918;-75
2021/12/12 03:05:13;;;;;;;;;;;;;;;11.00;88.97;97823.56;4976186;28;19971;-76
2021/12/12 03:07:39;;;;;;;;;;;;;;;11.01;88.37;97822.47;4975579;28;20333;-74
2021/12/12 03:10:06;;;;;;;;;;;;;;;11.01;88.10;97841.19;4992949;28;19909;-71
2021/12/12 03:12:33;;;;;;;;;;;;;;;11.02;87.87;97858.03;4992880;28;19917;-72
2021/12/12 03:15:02;;;;;;;;;;;;;;;11.03;87.29;97859.59;4998038;28;20047;-72
2021/12/12 03:17:28;;;;;;;;;;;;;;;11.03;87.60;97864.97;5012133;28;20008;-81
2021/12/12 03:19:56;;;;;;;;;;;;;;;11.03;86.76;97862.28;4990851;28;19989;-78
2021/12/12 03:22:22;;;;;;;;;;;;;;;11.03;86.49;97854.25;4975091;28;19914;-77
2021/12/12 03:24:48;;;;;;;;;;;;;;;11.02;86.89;97850.81;4986552;28;20000;-81
2021/12/12 03:27:14;;;;;;;;;;;;;;;11.03;86.07;97854.25;4975046;28;20365;-82
2021/12/12 03:29:39;;;;;;;;;;;;;;;11.01;86.23;97870.63;4977517;28;20832;-81
2021/12/12 03:32:10;;;;;;;;;;;;;;;10.99;86.66;97862.09;4994625;28;19921;-79
2021/12/12 03:34:37;;;;;;;;;;;;;;;10.97;86.46;97871.53;4994629;28;20448;-82
2021/12/12 03:37:03;;;;;;;;;;;;;;;10.94;85.71;97864.91;4990837;28;19925;-81
2021/12/12 03:39:32;;;;;;;;;;;;;;;10.92;85.85;97875.13;4974764;28;19929;-76
2021/12/12 03:41:59;;;;;;;;;;;;;;;10.89;85.72;97895.25;4992152;28;19975;-75
2021/12/12 03:44:27;;;;;;;;;;;;;;;10.86;85.95;97911.13;4974670;28;19914;-76
2021/12/12 03:46:55;;;;;;;;;;;;;;;10.82;86.33;97928.88;4992800;28;19917;-76
2021/12/12 03:49:22;;;;;;;;;;;;;;;10.77;85.96;97929.78;4974727;28;19921;-75
2021/12/12 03:51:47;;;;;;;;;;;;;;;10.72;85.47;97920.00;4992648;28;20145;-75
2021/12/12 03:54:13;;;;;;;;;;;;;;;10.68;85.70;97918.25;4989544;28;19940;-75
2021/12/12 03:56:40;;;;;;;;;;;;;;;10.63;85.02;97918.38;5011737;28;19913;-74
2021/12/12 03:59:05;;;;;;;;;;;;;;;10.57;83.88;97931.84;5011786;28;19956;-74
2021/12/12 04:01:34;;;;;;;;;;;;;;;10.54;83.70;97942.38;5011255;28;19956;-75
2021/12/12 04:04:02;;;;;;;;;;;;;;;10.52;83.56;97940.00;4994101;28;19967;-75
2021/12/12 04:06:29;;;;;;;;;;;;;;;10.50;82.67;97941.41;4993530;28;19924;-74
2021/12/12 04:08:55;;;;;;;;;;;;;;;10.48;82.37;97933.66;4995135;28;19917;-74
2021/12/12 04:11:23;;;;;;;;;;;;;;;10.46;82.76;97927.84;4991852;28;19944;-73
2021/12/12 04:13:50;;;;;;;;;;;;;;;10.45;81.96;97936.16;4991751;28;19949;-71
2021/12/12 04:16:15;;;;;;;;;;;;;;;10.43;81.56;97931.13;4991819;28;19914;-72
2021/12/12 04:18:41;;;;;;;;;;;;;;;10.41;80.49;97939.44;5003236;28;19918;-72
2021/12/12 04:21:07;;;;;;;;;;;;;;;10.41;79.79;97942.13;5011612;28;19921;-73
2021/12/12 04:23:32;;;;;;;;;;;;;;;10.41;78.46;97944.78;4993744;28;19917;-73
2021/12/12 04:26:12;;;;;;;;;;;;;;;10.44;78.87;97954.09;4989689;28;19917;-72
2021/12/12 04:28:38;;;;;;;;;;;;;;;10.44;79.20;97964.78;4974405;28;19913;-74
2021/12/12 04:31:04;;;;;;;;;;;;;;;10.45;78.70;97977.06;4993320;28;19914;-74
2021/12/12 04:33:29;;;;;;;;;;;;;;;10.48;79.06;97981.00;4981641;28;20388;-81
2021/12/12 04:35:55;;;;;;;;;;;;;;;10.49;78.47;97993.28;4985795;28;19947;-74
2021/12/12 04:38:20;;;;;;;;;;;;;;;10.50;78.11;97982.28;4997277;28;19918;-83
2021/12/12 04:40:45;;;;;;;;;;;;;;;10.51;78.65;97985.72;4997818;28;19921;-83
2021/12/12 04:43:11;;;;;;;;;;;;;;;10.52;78.51;97996.13;4997678;28;19956;-77
2021/12/12 04:45:40;;;;;;;;;;;;;;;10.51;78.59;97997.22;4984905;28;19917;-75
2021/12/12 04:50:52;;;;;;;;;;;;;;;10.50;78.12;98027.72;4995832;28;19967;-78
2021/12/12 04:53:24;;;;;;;;;;;;;;;10.49;78.20;98031.47;4977815;28;19914;-76
2021/12/12 04:55:55;;;;;;;;;;;;;;;10.49;78.44;98033.38;4995567;28;20004;-78
2021/12/12 04:58:33;;;;;;;;;;;;;;;10.48;78.35;98037.91;4995298;28;19920;-78
2021/12/12 05:01:03;;;;;;;;;;;;;;;10.49;77.55;98041.41;4993010;28;19924;-79
2021/12/12 05:03:31;;;;;;;;;;;;;;;10.49;77.67;98052.09;4992386;28;20012;-79
2021/12/12 05:06:13;;;;;;;;;;;;;;;10.49;77.54;98057.44;4995270;28;19921;-76
2021/12/12 05:08:38;;;;;;;;;;;;;;;10.50;77.55;98057.13;4991616;28;19917;-74
2021/12/12 05:11:17;;;;;;;;;;;;;;;10.50;78.09;98053.66;4997171;28;19971;-73
2021/12/12 05:13:50;;;;;;;;;;;;;;;10.50;77.72;98049.09;5014793;28;19921;-73
2021/12/12 05:16:21;;;;;;;;;;;;;;;10.53;77.56;98037.00;4977880;28;19921;-73
2021/12/12 05:18:51;;;;;;;;;;;;;;;10.54;77.71;98054.66;4995023;28;19918;-74
2021/12/12 05:21:27;;;;;;;;;;;;;;;10.55;77.77;98065.03;4994520;28;20309;-73
2021/12/12 05:23:56;;;;;;;;;;;;;;;10.57;77.59;98070.09;4998192;28;19933;-72
2021/12/12 05:26:30;;;;;;;;;;;;;;;10.56;77.57;98079.97;4992513;28;19949;-72
2021/12/12 05:29:04;;;;;;;;;;;;;;;10.55;76.59;98097.13;4996778;28;20372;-73
2021/12/12 05:31:31;;;;;;;;;;;;;;;10.52;77.37;98094.25;5012502;28;19918;-73
2021/12/12 05:33:56;;;;;;;;;;;;;;;10.46;78.29;98085.56;4984985;28;19928;-73
2021/12/12 05:36:22;;;;;;;;;;;;;;;10.40;78.42;98082.19;4993983;28;19917;-73
2021/12/12 05:38:48;;;;;;;;;;;;;;;10.35;78.85;98095.63;4977246;28;20375;-74
2021/12/12 05:41:14;;;;;;;;;;;;;;;10.31;79.08;98097.28;4994387;28;19957;-74
2021/12/12 05:43:40;;;;;;;;;;;;;;;10.28;79.64;98095.22;4977092;28;19953;-74
2021/12/12 05:46:06;;;;;;;;;;;;;;;10.23;79.97;98088.09;4994458;28;19918;-74
2021/12/12 05:48:31;;;;;;;;;;;;;;;10.20;80.57;98085.22;4976945;28;19918;-74
2021/12/12 05:50:57;;;;;;;;;;;;;;;10.18;80.52;98077.50;4994802;28;19917;-74
2021/12/12 05:53:22;;;;;;;;;;;;;;;10.15;80.95;98080.75;4993688;28;19914;-73
2021/12/12 05:55:48;;;;;;;;;;;;;;;10.13;81.23;98080.28;4976808;28;19917;-72
2021/12/12 05:58:16;;;;;;;;;;;;;;;10.14;80.52;98083.75;4994186;28;19992;-73
2021/12/12 06:00:49;;;;;;;;;;;;;;;10.14;81.25;98083.75;4994471;28;19920;-71
2021/12/12 06:03:15;;;;;;;;;;;;;;;10.17;80.25;98080.50;4999111;28;19983;-73
2021/12/12 06:05:41;;;;;;;;;;;;;;;10.19;79.07;98075.63;4993764;28;19968;-73
2021/12/12 06:08:07;;;;;;;;;;;;;;;10.24;78.40;98087.00;5002388;28;19921;-74
2021/12/12 06:10:34;;;;;;;;;;;;;;;10.31;78.02;98075.13;4995436;28;19930;-73
2021/12/12 06:13:00;;;;;;;;;;;;;;;10.37;77.96;98080.09;4991923;28;19967;-73
2021/12/12 06:15:27;;;;;;;;;;;;;;;10.45;77.16;98094.66;5002756;28;19917;-74
2021/12/12 06:17:53;;;;;;;;;;;;;;;10.53;76.83;98098.50;5003228;28;19924;-76
2021/12/12 06:20:19;;;;;;;;;;;;;;;10.60;76.06;98106.13;4979534;28;19918;-74
2021/12/12 06:22:44;;;;;;;;;;;;;;;10.65;75.47;98114.03;4993179;28;19918;-74
2021/12/12 06:25:10;;;;;;;;;;;;;;;10.73;75.03;98124.03;4993236;28;19918;-76
2021/12/12 06:27:37;;;;;;;;;;;;;;;10.81;75.63;98130.56;4995536;28;20333;-74
2021/12/12 06:30:05;;;;;;;;;;;;;;;10.84;74.52;98122.72;4991712;28;20355;-77
2021/12/12 06:32:30;;;;;;;;;;;;;;;10.91;74.43;98124.19;4981443;28;20015;-77
2021/12/12 06:34:56;;;;;;;;;;;;;;;10.95;73.73;98133.19;4982287;28;20009;-74
2021/12/12 06:37:22;;;;;;;;;;;;;;;10.99;73.52;98120.81;4993699;28;20564;-75
2021/12/12 06:39:48;;;;;;;;;;;;;;;11.03;74.89;98130.63;4991557;28;19996;-75
2021/12/12 06:42:14;;;;;;;;;;;;;;;11.07;74.06;98136.16;5008756;28;19917;-74
2021/12/12 06:44:41;;;;;;;;;;;;;;;11.12;73.17;98143.28;5010198;28;20396;-76
2021/12/12 06:47:08;;;;;;;;;;;;;;;11.15;74.07;98142.69;4979496;28;19928;-76
2021/12/12 06:49:34;;;;;;;;;;;;;;;11.19;74.33;98152.50;4978329;28;20344;-77
2021/12/12 06:52:00;;;;;;;;;;;;;;;11.23;73.93;98158.03;4990331;28;20380;-76
2021/12/12 06:54:27;;;;;;;;;;;;;;;11.28;73.55;98157.09;4974211;28;19925;-76
2021/12/12 06:56:56;;;;;;;;;;;;;;;11.29;73.58;98164.03;4981183;28;19921;-76
2021/12/12 06:59:22;;;;;;;;;;;;;;;11.32;73.21;98169.59;4991157;28;20016;-78
2021/12/12 07:01:49;;;;;;;;;;;;;;;11.35;72.88;98170.84;4992393;28;19925;-76
2021/12/12 07:04:18;;;;;;;;;;;;;;;11.40;73.78;98194.06;4983607;28;19925;-83
2021/12/12 07:06:44;;;;;;;;;;;;;;;11.44;73.61;98192.38;4975698;28;20423;-84
2021/12/12 07:09:10;;;;;;;;;;;;;;;11.48;73.54;98182.63;4975519;28;19917;-83
2021/12/12 07:11:36;;;;;;;;;;;;;;;11.52;73.05;98183.59;4987098;28;20370;-77
2021/12/12 07:14:02;;;;;;;;;;;;;;;11.56;73.90;98181.09;4982045;28;19921;-85
2021/12/12 07:16:27;;;;;;;;;;;;;;;11.59;74.05;98183.97;4984647;28;19975;-85
2021/12/12 07:18:54;;;;;;;;;;;;;;;11.63;73.37;98168.91;4994990;28;19944;-85
2021/12/12 07:21:20;;;;;;;;;;;;;;;11.64;73.15;98165.09;4982464;28;20468;-85
2021/12/12 07:23:46;;;;;;;;;;;;;;;11.69;72.86;98177.56;4982064;28;19918;-84
2021/12/12 07:26:12;;;;;;;;;;;;;;;11.73;72.62;98178.56;4974829;28;19941;-83
2021/12/12 07:28:38;;;;;;;;;;;;;;;11.75;72.46;98192.44;4975207;28;19925;-83
2021/12/12 07:31:05;;;;;;;;;;;;;;;11.76;71.94;98194.03;4975548;28;19992;-84
2021/12/12 07:33:31;;;;;;;;;;;;;;;11.77;71.84;98195.59;4978515;28;19992;-85
2021/12/12 07:35:59;;;;;;;;;;;;;;;11.79;72.16;98200.66;4976284;28;20345;-84
2021/12/12 07:38:25;;;;;;;;;;;;;;;11.79;71.75;98203.31;4990498;28;20382;-85
2021/12/12 07:40:50;;;;;;;;;;;;;;;11.79;71.90;98230.13;4976770;28;20366;-80
2021/12/12 07:43:16;;;;;;;;;;;;;;;11.80;71.06;98226.34;4994410;28;19960;-80
2021/12/12 07:45:41;;;;;;;;;;;;;;;11.81;71.29;98212.63;4989219;28;20016;-78
2021/12/12 07:48:09;;;;;;;;;;;;;;;11.85;71.40;98218.19;4978030;28;19965;-80
2021/12/12 07:50:34;;;;;;;;;;;;;;;11.83;70.69;98223.84;4974288;28;20019;-79
2021/12/12 07:53:00;;;;;;;;;;;;;;;11.84;70.79;98217.41;4975429;28;19918;-79
2021/12/12 07:55:26;;;;;;;;;;;;;;;11.86;71.04;98233.16;4974656;28;20013;-83
2021/12/12 07:57:51;;;;;;;;;;;;;;;11.88;70.47;98239.03;4985778;28;20317;-81
2021/12/12 08:00:19;;;;;;;;;;;;;;;11.90;70.62;98246.75;4994412;28;19971;-80
2021/12/12 08:02:46;;;;;;;;;;;;;;;11.90;70.70;98244.06;4994440;28;20443;-82
2021/12/12 08:05:13;;;;;;;;;;;;;;;11.90;70.13;98246.75;4990188;28;19968;-80
2021/12/12 08:07:40;;;;;;;;;;;;;;;11.91;70.26;98238.41;4985741;28;19921;-82
2021/12/12 08:10:10;;;;;;;;;;;;;;;11.93;69.93;98246.94;4986777;28;19921;-81
2021/12/12 08:12:35;;;;;;;;;;;;;;;11.94;69.51;98247.75;4977867;28;19929;-82
2021/12/12 08:15:03;;;;;;;;;;;;;;;11.95;69.91;98257.34;4985417;28;20325;-81
2021/12/12 08:17:28;;;;;;;;;;;;;;;11.94;69.45;98267.28;4982826;28;20381;-81
2021/12/12 08:19:56;;;;;;;;;;;;;;;11.93;68.78;98281.75;4991264;28;19967;-83
2021/12/12 08:22:23;;;;;;;;;;;;;;;11.90;69.49;98274.34;4981933;28;19917;-85
2021/12/12 08:24:49;;;;;;;;;;;;;;;11.93;69.64;98286.34;4983745;28;19917;-82
2021/12/12 08:27:15;;;;;;;;;;;;;;;11.94;68.68;98290.63;4985203;28;19913;-85
2021/12/12 08:29:41;;;;;;;;;;;;;;;11.94;68.26;98288.72;4994335;28;19940;-84
2021/12/12 08:32:08;;;;;;;;;;;;;;;11.95;68.68;98289.50;4996795;28;20024;-85
2021/12/12 08:34:34;;;;;;;;;;;;;;;11.96;68.93;98291.09;4975358;28;20004;-80
2021/12/12 08:37:00;;;;;;;;;;;;;;;11.93;69.56;98292.47;4974795;28;20004;-82
2021/12/12 08:39:27;;;;;;;;;;;;;;;11.93;69.70;98291.69;4980808;28;19995;-79
2021/12/12 08:41:53;;;;;;;;;;;;;;;11.93;69.37;98302.41;4993769;28;19967;-82
2021/12/12 08:44:21;;;;;;;;;;;;;;;11.89;69.64;98283.47;4981680;28;19918;-75
2021/12/12 08:46:49;;;;;;;;;;;;;;;11.89;70.30;98282.66;5006471;28;19925;-74
2021/12/12 08:49:16;;;;;;;;;;;;;;;11.90;70.95;98287.75;5003421;28;20046;-76
2021/12/12 08:51:43;;;;;;;;;;;;;;;11.89;70.88;98288.84;4974091;28;19920;-82
2021/12/12 08:54:15;;;;;;;;;;;;;;;11.91;71.96;98285.84;4981335;28;19922;-81
2021/12/12 08:56:46;;;;;;;;;;;;;;;11.93;72.94;98289.81;4973705;28;19917;-88
2021/12/12 08:59:22;;;;;;;;;;;;;;;11.99;73.47;98287.84;4974507;28;19921;-76
2021/12/12 09:01:49;;;;;;;;;;;;;;;12.06;73.88;98290.09;4995177;28;19920;-78
2021/12/12 09:04:14;;;;;;;;;;;;;;;12.16;72.81;98284.50;4992877;28;19960;-83
2021/12/12 09:06:43;;;;;;;;;;;;;;;12.20;71.06;98271.28;4982460;28;19976;-73
2021/12/12 09:09:10;;;;;;;;;;;;;;;12.27;71.55;98259.00;4974069;28;19949;-77
2021/12/12 09:11:54;;;;;;;;;;;;;;;12.36;71.20;98261.75;4992599;28;19960;-77
2021/12/12 09:14:23;;;;;;;;;;;;;;;12.49;70.13;98263.56;4985694;28;19917;-75
2021/12/12 09:17:09;;;;;;;;;;;;;;;12.60;68.87;98274.81;4991894;28;19917;-76
2021/12/12 09:19:37;;;;;;;;;;;;;;;12.75;68.58;98275.50;5005495;28;19917;-76
2021/12/12 09:22:10;;;;;;;;;;;;;;;12.87;68.41;98275.72;5004200;28;19918;-74
2021/12/12 09:24:45;;;;;;;;;;;;;;;13.02;68.43;98273.72;4984617;28;20388;-80
2021/12/12 09:27:25;;;;;;;;;;;;;;;13.13;66.84;98269.63;4978188;28;19921;-80
2021/12/12 09:30:01;;;;;;;;;;;;;;;13.27;67.03;98282.97;4986663;28;19941;-80
2021/12/12 09:32:26;;;;;;;;;;;;;;;13.38;66.44;98284.28;4978489;28;19928;-81
2021/12/12 09:35:00;;;;;;;;;;;;;;;13.50;65.22;98288.22;4979875;28;19917;-80
2021/12/12 09:37:46;;;;;;;;;;;;;;;13.56;64.25;98282.41;4990924;28;19921;-77
2021/12/12 09:40:20;;;;;;;;;;;;;;;13.63;64.15;98284.63;4993097;28;19917;-75
2021/12/12 09:43:04;;;;;;;;;;;;;;;13.69;64.20;98285.25;5013830;28;19921;-74
2021/12/12 09:45:44;;;;;;;;;;;;;;;13.74;64.18;98283.22;4997752;28;19961;-74
2021/12/12 09:53:49;;;;;;;;;;;;;;;13.87;62.98;98265.34;5005376;28;19940;-75
2021/12/12 09:56:22;;;;;;;;;;;;;;;13.89;63.35;98270.38;5012717;28;19974;-77
2021/12/12 09:59:13;;;;;;;;;;;;;;;13.92;64.05;98262.47;4996177;28;19913;-76
2021/12/12 10:02:11;;;;;;;;;;;;;;;13.95;63.72;98266.44;4967346;28;19948;-74
2021/12/12 10:04:46;;;;;;;;;;;;;;;13.99;63.71;98251.28;4960435;28;19957;-74
2021/12/12 10:07:20;;;;;;;;;;;;;;;14.03;63.44;98252.19;4994493;28;19949;-76
2021/12/12 10:10:07;;;;;;;;;;;;;;;14.07;62.84;98255.03;4976346;28;19921;-75
2021/12/12 10:12:47;;;;;;;;;;;;;;;14.11;62.54;98261.38;4992309;28;19932;-75
2021/12/12 10:15:19;;;;;;;;;;;;;;;14.18;63.09;98237.47;4993924;28;20439;-75
2021/12/12 10:18:07;;;;;;;;;;;;;;;14.24;63.20;98235.41;4993969;28;19961;-75
2021/12/12 10:20:36;;;;;;;;;;;;;;;14.33;63.00;98236.19;4993307;28;19976;-75
2021/12/12 10:23:09;;;;;;;;;;;;;;;14.40;61.92;98233.78;4992186;28;19913;-76
2021/12/12 10:25:46;;;;;;;;;;;;;;;14.47;62.33;98240.59;4976055;28;20021;-75
2021/12/12 10:28:14;;;;;;;;;;;;;;;14.53;61.62;98250.81;4992398;28;19914;-76
2021/12/12 10:30:44;;;;;;;;;;;;;;;14.59;61.78;98246.06;4993436;28;19914;-75
2021/12/12 10:33:09;;;;;;;;;;;;;;;14.63;60.32;98236.22;4975970;28;20308;-75
2021/12/12 10:35:35;;;;;;;;;;;;;;;14.67;59.58;98244.47;4993020;28;19921;-75
2021/12/12 10:38:08;;;;;;;;;;;;;;;14.71;59.20;98254.28;4993230;28;20257;-74
2021/12/12 10:40:45;;;;;;;;;;;;;;;14.76;59.73;98247.94;4975763;28;19914;-74
2021/12/12 10:43:12;;;;;;;;;;;;;;;14.79;58.82;98255.34;4993217;28;20321;-75
2021/12/12 10:45:42;;;;;;;;;;;;;;;14.82;58.13;98253.94;4975558;28;19917;-75
2021/12/12 10:48:18;;;;;;;;;;;;;;;14.83;57.55;98256.31;4975804;28;19921;-74
2021/12/12 10:51:00;;;;;;;;;;;;;;;14.84;57.80;98259.78;4993694;28;19953;-75
2021/12/12 10:53:35;;;;;;;;;;;;;;;14.83;57.67;98266.25;4975574;28;19918;-74
2021/12/12 10:56:15;;;;;;;;;;;;;;;14.83;57.46;98271.66;4993254;28;19913;-75
2021/12/12 10:58:44;;;;;;;;;;;;;;;14.79;55.77;98249.19;4975500;28;19913;-75
2021/12/12 11:01:12;;;;;;;;;;;;;;;14.78;55.54;98253.00;4975715;28;19914;-75
2021/12/12 11:04:04;;;;;;;;;;;;;;;14.77;55.34;98260.28;4992554;28;19913;-75
2021/12/12 11:06:31;;;;;;;;;;;;;;;14.77;56.31;98262.97;4952361;28;19921;-74
2021/12/12 11:09:03;;;;;;;;;;;;;;;14.75;55.74;98264.41;4975538;28;19921;-75
2021/12/12 11:11:37;;;;;;;;;;;;;;;14.77;56.37;98270.25;4992586;28;20008;-74
2021/12/12 11:14:20;;;;;;;;;;;;;;;14.76;56.24;98269.47;4992844;28;19914;-74
2021/12/12 11:16:45;;;;;;;;;;;;;;;14.79;56.67;98262.66;4992331;28;20008;-75
2021/12/12 11:19:14;;;;;;;;;;;;;;;14.80;56.97;98278.47;4975209;28;19968;-76
2021/12/12 11:21:44;;;;;;;;;;;;;;;14.83;57.63;98274.34;4992439;28;19945;-74
2021/12/12 11:24:14;;;;;;;;;;;;;;;14.86;57.88;98274.50;4975075;28;20365;-75
2021/12/12 11:26:47;;;;;;;;;;;;;;;14.89;57.56;98270.34;4974996;28;19914;-75
2021/12/12 11:29:17;;;;;;;;;;;;;;;14.93;57.82;98283.97;4975102;28;19920;-75
2021/12/12 11:31:42;;;;;;;;;;;;;;;14.93;57.80;98290.16;4992457;28;19920;-75
2021/12/12 11:34:09;;;;;;;;;;;;;;;14.95;57.43;98285.25;4992684;28;19913;-75
2021/12/12 11:36:45;;;;;;;;;;;;;;;14.95;57.95;98282.56;4991950;28;20393;-74
2021/12/12 11:39:29;;;;;;;;;;;;;;;14.95;56.76;98276.34;4974533;28;19921;-75
2021/12/12 11:41:54;;;;;;;;;;;;;;;14.96;57.07;98267.16;4992050;28;19963;-74
2021/12/12 11:44:32;;;;;;;;;;;;;;;14.95;56.39;98269.09;4974319;28;19918;-74
2021/12/12 11:47:16;;;;;;;;;;;;;;;14.97;57.60;98266.06;4990858;28;20320;-74
2021/12/12 11:49:55;;;;;;;;;;;;;;;14.96;55.88;98264.47;4974561;28;20026;-73
2021/12/12 11:52:35;;;;;;;;;;;;;;;14.98;56.28;98256.88;4992235;28;19913;-73
2021/12/12 11:55:07;;;;;;;;;;;;;;;15.01;56.81;98250.81;4975111;28;19928;-73
2021/12/12 11:57:34;;;;;;;;;;;;;;;15.03;57.08;98245.91;4974240;28;19972;-72
2021/12/12 12:00:02;;;;;;;;;;;;;;;15.05;57.09;98249.84;4992672;28;19921;-72
2021/12/12 12:02:27;;;;;;;;;;;;;;;15.09;57.18;98247.31;5011560;28;19919;-73
2021/12/12 12:05:11;;;;;;;;;;;;;;;15.11;57.02;98239.69;5011822;28;19913;-73
2021/12/12 12:07:39;;;;;;;;;;;;;;;15.13;56.24;98236.69;4990001;28;20377;-72
2021/12/12 12:10:05;;;;;;;;;;;;;;;15.16;56.51;98236.00;4991656;28;20062;-72
2021/12/12 12:12:43;;;;;;;;;;;;;;;15.17;55.77;98232.19;5007974;28;20031;-73
2021/12/12 12:15:12;;;;;;;;;;;;;;;15.18;56.06;98229.22;4995065;28;19961;-72
2021/12/12 12:17:57;;;;;;;;;;;;;;;15.18;56.71;98237.28;4990911;28;19984;-74
2021/12/12 12:20:22;;;;;;;;;;;;;;;15.18;56.11;98234.59;4973949;28;20008;-72
2021/12/12 12:22:55;;;;;;;;;;;;;;;15.19;56.71;98246.13;4991079;28;20008;-71
2021/12/12 12:25:25;;;;;;;;;;;;;;;15.02;68.16;98247.81;4991189;28;19936;-73
2021/12/12 12:28:04;;;;;;;;;;;;;;;14.92;69.71;98242.03;4973297;28;19913;-74
2021/12/12 12:30:48;;;;;;;;;;;;;;;14.81;70.95;98247.75;5005373;28;19921;-72
2021/12/12 12:33:33;;;;;;;;;;;;;;;14.66;72.19;98262.53;4995623;28;20008;-72
2021/12/12 12:36:16;;;;;;;;;;;;;;;14.51;72.85;98252.25;4991052;28;19924;-73
2021/12/12 12:39:00;;;;;;;;;;;;;;;14.39;74.69;98258.31;4990690;28;19920;-72
2021/12/12 12:41:40;;;;;;;;;;;;;;;14.31;75.15;98259.13;4991108;28;19921;-74
2021/12/12 12:44:35;;;;;;;;;;;;;;;14.19;76.63;98274.00;4990974;28;19922;-73
2021/12/12 12:47:19;;;;;;;;;;;;;;;14.08;77.14;98262.00;4954494;28;19915;-77
2021/12/12 12:50:07;;;;;;;;;;;;;;;13.95;79.01;98260.28;4977011;28;19928;-77
2021/12/12 12:52:52;;;;;;;;;;;;;;;13.82;80.02;98268.19;4975392;28;19918;-74
2021/12/12 12:55:25;;;;;;;;;;;;;;;13.68;81.84;98270.25;4977217;28;19980;-73
2021/12/12 12:57:53;;;;;;;;;;;;;;;13.55;82.49;98264.69;4994667;28;19921;-75
2021/12/12 13:00:20;;;;;;;;;;;;;;;13.48;82.91;98264.38;4977169;28;19920;-76
2021/12/12 13:02:55;;;;;;;;;;;;;;;13.38;80.71;98267.38;4994382;28;19922;-76
2021/12/12 13:05:38;;;;;;;;;;;;;;;13.35;80.59;98276.00;4977679;28;19914;-78
2021/12/12 13:08:22;;;;;;;;;;;;;;;13.31;83.73;98286.59;4994929;28;20504;-74
2021/12/12 13:10:48;;;;;;;;;;;;;;;13.18;85.27;98285.59;4977412;28;19917;-76
2021/12/12 13:13:17;;;;;;;;;;;;;;;13.06;85.71;98280.03;4977954;28;19917;-72
2021/12/12 13:15:42;;;;;;;;;;;;;;;12.97;85.75;98283.50;4977277;28;19925;-75
2021/12/12 13:18:17;;;;;;;;;;;;;;;12.90;86.07;98283.16;4983076;28;19917;-74
2021/12/12 13:21:01;;;;;;;;;;;;;;;12.86;86.25;98287.53;5014324;28;20062;-73